createdAt,value
2023-04-25T00:02:16.138Z,17.80
2023-04-25T00:04:44.842Z,17.90
2023-04-25T00:07:13.787Z,17.80
2023-04-25T00:09:42.275Z,17.80
2023-04-25T00:12:10.923Z,17.80
2023-04-25T00:14:39.830Z,17.80
2023-04-25T00:17:09.608Z,17.80
2023-04-25T00:19:38.934Z,17.80
2023-04-25T00:22:07.453Z,17.90
2023-04-25T00:24:35.895Z,17.80
2023-04-25T00:27:04.470Z,17.80
2023-04-25T00:29:32.774Z,17.80
2023-04-25T00:32:01.719Z,17.80
2023-04-25T00:34:31.756Z,17.80
2023-04-25T00:37:02.303Z,17.80
2023-04-25T00:39:30.682Z,17.80
2023-04-25T00:41:59.955Z,17.80
2023-04-25T00:44:30.564Z,17.80
2023-04-25T00:46:59.842Z,17.80
2023-04-25T00:49:28.267Z,17.80
2023-04-25T00:51:58.776Z,17.80
2023-04-25T00:54:27.636Z,17.80
2023-04-25T00:56:56.170Z,17.80
2023-04-25T00:59:24.608Z,17.80
2023-04-25T01:01:53.102Z,17.80
2023-04-25T01:04:21.700Z,17.80
2023-04-25T01:06:50.838Z,17.80
2023-04-25T01:09:21.047Z,17.80
2023-04-25T01:11:49.501Z,17.80
2023-04-25T01:14:18.084Z,17.80
2023-04-25T01:16:47.047Z,17.80
2023-04-25T01:19:19.366Z,17.80
2023-04-25T01:21:49.416Z,17.80
2023-04-25T01:24:17.913Z,17.80
2023-04-25T01:26:50.867Z,17.80
2023-04-25T01:29:19.542Z,17.80
2023-04-25T01:31:48.966Z,17.80
2023-04-25T01:34:17.371Z,17.70
2023-04-25T01:36:45.781Z,17.80
2023-04-25T01:39:15.547Z,17.80
2023-04-25T01:41:43.994Z,17.80
2023-04-25T01:44:12.433Z,17.80
2023-04-25T01:46:41.053Z,17.80
2023-04-25T01:49:09.719Z,17.70
2023-04-25T01:51:38.753Z,17.80
2023-04-25T01:54:08.454Z,17.80
2023-04-25T01:56:39.823Z,17.80
2023-04-25T01:59:08.244Z,17.90
2023-04-25T02:01:36.707Z,17.80
2023-04-25T02:04:05.349Z,17.80
2023-04-25T02:06:33.836Z,17.80
2023-04-25T02:09:02.302Z,17.80
2023-04-25T02:11:30.675Z,17.80
2023-04-25T02:14:00.419Z,17.80
2023-04-25T02:16:28.820Z,17.80
2023-04-25T02:18:57.281Z,17.80
2023-04-25T02:21:25.627Z,17.80
2023-04-25T02:23:53.984Z,17.80
2023-04-25T02:26:22.388Z,17.80
2023-04-25T02:28:51.053Z,17.80
2023-04-25T02:31:20.784Z,17.80
2023-04-25T02:33:49.983Z,17.70
2023-04-25T02:36:18.460Z,17.70
2023-04-25T02:38:46.801Z,17.70
2023-04-25T02:41:15.171Z,17.70
2023-04-25T02:43:43.717Z,17.70
2023-04-25T02:46:12.120Z,17.70
2023-04-25T02:48:41.921Z,17.70
2023-04-25T02:51:10.233Z,17.70
2023-04-25T02:53:38.540Z,17.70
2023-04-25T02:56:07.505Z,17.70
2023-04-25T02:58:35.909Z,17.70
2023-04-25T03:01:04.381Z,17.70
2023-04-25T03:03:32.802Z,17.70
2023-04-25T03:06:02.640Z,17.70
2023-04-25T03:08:33.654Z,17.60
2023-04-25T03:11:02.076Z,17.60
2023-04-25T03:13:31.079Z,17.60
2023-04-25T03:15:59.389Z,17.60
2023-04-25T03:18:27.724Z,17.60
2023-04-25T03:20:56.106Z,17.60
2023-04-25T03:23:26.062Z,17.60
2023-04-25T03:25:54.557Z,17.60
2023-04-25T03:28:22.937Z,17.60
2023-04-25T03:30:51.428Z,17.60
2023-04-25T03:33:19.761Z,17.60
2023-04-25T03:35:48.403Z,17.60
2023-04-25T03:38:16.796Z,17.60
2023-04-25T03:40:46.560Z,17.60
2023-04-25T03:43:15.003Z,17.60
2023-04-25T03:45:43.711Z,17.50
2023-04-25T03:48:12.032Z,17.60
2023-04-25T03:50:40.451Z,17.50
2023-04-25T03:53:08.809Z,17.50
2023-04-25T03:55:37.142Z,17.50
2023-04-25T03:58:07.151Z,17.50
2023-04-25T04:00:35.650Z,17.50
2023-04-25T04:03:04.235Z,17.50
2023-04-25T04:05:33.860Z,17.50
2023-04-25T04:08:02.165Z,17.50
2023-04-25T04:10:30.551Z,17.50
2023-04-25T04:12:58.976Z,17.50
2023-04-25T04:15:28.697Z,17.50
2023-04-25T04:17:57.065Z,17.50
2023-04-25T04:20:25.627Z,17.50
2023-04-25T04:22:53.967Z,17.40
2023-04-25T04:25:22.336Z,17.40
2023-04-25T04:27:52.904Z,17.50
2023-04-25T04:30:22.773Z,17.40
2023-04-25T04:32:52.737Z,17.40
2023-04-25T04:35:21.523Z,17.40
2023-04-25T04:37:50.102Z,17.40
2023-04-25T04:40:18.586Z,17.40
2023-04-25T04:42:47.628Z,17.40
2023-04-25T04:45:17.381Z,17.40
2023-04-25T04:47:46.038Z,17.50
2023-04-25T04:50:16.017Z,17.40
2023-04-25T04:52:44.697Z,17.50
2023-04-25T04:55:13.115Z,17.40
2023-04-25T04:57:41.581Z,17.40
2023-04-25T05:00:12.151Z,17.40
2023-04-25T05:02:40.793Z,17.40
2023-04-25T05:05:10.145Z,17.40
2023-04-25T05:07:39.940Z,17.40
2023-04-25T05:10:09.345Z,17.40
2023-04-25T05:12:37.738Z,17.40
2023-04-25T05:15:07.164Z,17.40
2023-04-25T05:17:35.731Z,17.40
2023-04-25T05:20:06.874Z,17.40
2023-04-25T05:22:35.917Z,17.40
2023-04-25T05:25:08.596Z,17.40
2023-04-25T05:27:36.890Z,17.40
2023-04-25T05:30:07.107Z,17.40
2023-04-25T05:32:35.746Z,17.40
2023-04-25T05:35:04.656Z,17.40
2023-04-25T05:37:33.893Z,17.30
2023-04-25T05:40:02.298Z,17.30
2023-04-25T05:42:31.981Z,17.40
2023-04-25T05:45:00.320Z,17.30
2023-04-25T05:47:28.701Z,17.40
2023-04-25T05:49:57.042Z,17.30
2023-04-25T05:52:26.033Z,17.40
2023-04-25T05:54:54.513Z,17.40
2023-04-25T05:57:24.376Z,17.40
2023-04-25T05:59:54.508Z,17.30
2023-04-25T06:02:23.606Z,17.40
2023-04-25T06:04:53.180Z,17.40
2023-04-25T06:07:22.015Z,17.30
2023-04-25T06:09:50.429Z,17.40
2023-04-25T06:12:18.903Z,17.30
2023-04-25T06:14:47.200Z,17.40
2023-04-25T06:17:17.038Z,17.40
2023-04-25T06:19:45.419Z,17.30
2023-04-25T06:22:13.788Z,17.30
2023-04-25T06:24:42.117Z,17.30
2023-04-25T06:27:10.493Z,17.30
2023-04-25T06:29:38.879Z,17.30
2023-04-25T06:32:07.724Z,17.30
2023-04-25T06:34:37.450Z,17.30
2023-04-25T06:37:05.799Z,17.30
2023-04-25T06:39:34.158Z,17.30
2023-04-25T06:42:02.524Z,17.30
2023-04-25T06:44:31.541Z,17.30
2023-04-25T06:47:00.001Z,17.40
2023-04-25T06:49:28.463Z,17.40
2023-04-25T06:51:58.175Z,17.40
2023-04-25T06:54:28.330Z,17.40
2023-04-25T06:56:56.733Z,17.50
2023-04-25T06:59:25.279Z,17.50
2023-04-25T07:01:53.732Z,17.50
2023-04-25T07:04:22.128Z,17.50
2023-04-25T07:06:50.752Z,17.50
2023-04-25T07:09:20.626Z,17.50
2023-04-25T07:11:48.910Z,17.50
2023-04-25T07:14:17.843Z,17.50
2023-04-25T07:16:46.239Z,17.50
2023-04-25T07:19:14.633Z,17.40
2023-04-25T07:21:43.118Z,17.50
2023-04-25T07:24:11.444Z,17.40
2023-04-25T07:26:41.244Z,17.40
2023-04-25T07:29:09.625Z,17.40
2023-04-25T07:31:38.354Z,17.50
2023-04-25T07:34:06.880Z,17.50
2023-04-25T07:36:35.342Z,17.50
2023-04-25T07:39:04.320Z,17.50
2023-04-25T07:41:32.753Z,17.50
2023-04-25T07:44:02.490Z,17.50
2023-04-25T07:46:30.917Z,17.50
2023-04-25T07:48:59.338Z,17.50
2023-04-25T07:51:27.766Z,17.50
2023-04-25T07:53:56.098Z,17.50
2023-04-25T07:56:24.437Z,17.50
2023-04-25T07:58:53.143Z,17.50
2023-04-25T08:01:23.196Z,17.50
2023-04-25T08:03:51.875Z,17.50
2023-04-25T08:06:20.709Z,17.60
2023-04-25T08:08:49.292Z,17.60
2023-04-25T08:11:17.991Z,17.60
2023-04-25T08:13:46.401Z,17.60
2023-04-25T08:16:14.715Z,17.60
2023-04-25T08:18:44.584Z,17.70
2023-04-25T08:21:13.433Z,17.70
2023-04-25T08:23:41.866Z,17.70
2023-04-25T08:26:10.299Z,17.80
2023-04-25T08:28:38.587Z,17.80
2023-04-25T08:31:07.324Z,17.80
2023-04-25T08:33:35.815Z,17.80
2023-04-25T08:36:05.884Z,17.80
2023-04-25T08:38:34.239Z,17.90
2023-04-25T08:41:03.151Z,17.90
2023-04-25T08:43:33.008Z,17.90
2023-04-25T08:46:02.771Z,17.90
2023-04-25T08:48:33.613Z,18.00
2023-04-25T08:53:43.972Z,18.00
2023-04-25T08:56:15.312Z,18.00
2023-04-25T08:58:43.687Z,18.00
2023-04-25T09:01:12.052Z,18.10
2023-04-25T09:03:40.980Z,18.10
2023-04-25T09:06:13.581Z,18.10
2023-04-25T09:08:42.016Z,18.10
2023-04-25T09:11:10.427Z,18.20
2023-04-25T09:13:38.798Z,18.30
2023-04-25T09:16:07.417Z,18.30
2023-04-25T09:18:37.214Z,18.30
2023-04-25T09:21:13.564Z,18.40
2023-04-25T09:23:47.306Z,18.40
2023-04-25T09:26:18.091Z,18.50
2023-04-25T09:28:46.975Z,18.50
2023-04-25T09:31:23.440Z,18.50
2023-04-25T09:33:52.345Z,18.50
2023-04-25T09:36:29.046Z,18.50
2023-04-25T09:39:01.739Z,18.60
2023-04-25T09:41:30.077Z,18.60
2023-04-25T09:44:01.075Z,18.60
2023-04-25T09:46:37.664Z,18.60
2023-04-25T09:49:09.489Z,18.70
2023-04-25T09:51:37.861Z,18.70
2023-04-25T09:54:08.346Z,18.60
2023-04-25T09:56:39.309Z,18.70
2023-04-25T09:59:09.227Z,18.70
2023-04-25T10:01:38.564Z,18.80
2023-04-25T10:04:08.383Z,18.80
2023-04-25T10:06:37.759Z,18.80
2023-04-25T10:09:08.854Z,18.80
2023-04-25T10:11:38.271Z,18.80
2023-04-25T10:14:07.718Z,18.90
2023-04-25T10:16:36.314Z,18.90
2023-04-25T10:19:05.149Z,18.90
2023-04-25T10:21:35.200Z,18.90
2023-04-25T10:24:04.486Z,19.00
2023-04-25T10:26:35.092Z,18.90
2023-04-25T10:29:04.916Z,18.90
2023-04-25T10:31:33.646Z,19.00
2023-04-25T10:34:02.830Z,19.00
2023-04-25T10:36:34.607Z,19.00
2023-04-25T10:39:09.081Z,19.10
2023-04-25T10:41:50.633Z,19.10
2023-04-25T10:44:19.044Z,19.10
2023-04-25T10:46:48.188Z,19.10
2023-04-25T10:49:32.300Z,19.10
2023-04-25T10:52:21.211Z,19.10
2023-04-25T10:54:51.212Z,19.10
2023-04-25T10:57:36.436Z,19.10
2023-04-25T11:00:10.820Z,19.20
2023-04-25T11:02:48.019Z,19.30
2023-04-25T11:05:33.146Z,19.30
2023-04-25T11:08:08.281Z,19.30
2023-04-25T11:10:37.463Z,19.30
2023-04-25T11:13:07.287Z,19.30
2023-04-25T11:15:35.606Z,19.30
2023-04-25T11:18:04.510Z,19.30
2023-04-25T11:20:32.845Z,19.30
2023-04-25T11:25:38.439Z,19.40
2023-04-25T11:28:08.700Z,19.30
2023-04-25T11:30:37.100Z,19.40
2023-04-25T11:33:05.699Z,19.30
2023-04-25T11:35:34.683Z,19.30
2023-04-25T11:38:03.928Z,19.30
2023-04-25T11:40:33.371Z,19.30
2023-04-25T11:43:03.139Z,19.30
2023-04-25T11:45:33.121Z,19.30
2023-04-25T11:48:01.634Z,19.30
2023-04-25T11:50:31.532Z,19.20
2023-04-25T11:52:59.980Z,19.10
2023-04-25T11:55:28.464Z,19.00
2023-04-25T11:57:56.907Z,18.90
2023-04-25T12:00:26.533Z,18.90
2023-04-25T12:02:59.259Z,18.80
2023-04-25T12:05:32.582Z,18.80
2023-04-25T12:08:13.983Z,18.80
2023-04-25T12:10:44.218Z,18.80
2023-04-25T12:13:23.856Z,18.70
2023-04-25T12:15:52.486Z,18.70
2023-04-25T12:18:26.314Z,18.60
2023-04-25T12:20:55.590Z,18.60
2023-04-25T12:23:29.317Z,18.60
2023-04-25T12:25:58.874Z,18.60
2023-04-25T12:28:29.231Z,18.60
2023-04-25T12:31:00.029Z,18.50
2023-04-25T12:33:32.078Z,18.60
2023-04-25T12:36:01.313Z,18.50
2023-04-25T12:38:31.894Z,18.50
2023-04-25T12:41:01.008Z,18.50
2023-04-25T12:43:29.455Z,18.50
2023-04-25T12:45:59.183Z,18.50
2023-04-25T12:48:27.542Z,18.50
2023-04-25T12:50:57.351Z,18.50
2023-04-25T12:53:26.152Z,18.40
2023-04-25T12:58:24.769Z,18.40
2023-04-25T13:00:53.161Z,18.40
2023-04-25T13:03:21.818Z,18.40
2023-04-25T13:05:51.398Z,18.40
2023-04-25T13:08:21.169Z,18.40
2023-04-25T13:10:50.293Z,18.40
2023-04-25T13:13:20.011Z,18.40
2023-04-25T13:15:48.820Z,18.40
2023-04-25T13:18:17.895Z,18.40
2023-04-25T13:20:47.228Z,18.40
2023-04-25T13:23:15.564Z,18.40
2023-04-25T13:25:45.334Z,18.40
2023-04-25T13:28:13.670Z,18.30
2023-04-25T13:30:43.716Z,18.20
2023-04-25T13:33:12.727Z,18.30
2023-04-25T13:35:42.151Z,18.30
2023-04-25T13:38:11.218Z,18.30
2023-04-25T13:40:39.661Z,18.30
2023-04-25T13:43:09.514Z,18.30
2023-04-25T13:45:37.936Z,18.30
2023-04-25T13:48:06.772Z,18.40
2023-04-25T13:50:35.379Z,18.40
2023-04-25T13:53:03.686Z,18.40
2023-04-25T13:55:32.327Z,18.40
2023-04-25T13:58:00.894Z,18.40
2023-04-25T14:00:30.880Z,18.40
2023-04-25T14:02:59.287Z,18.40
2023-04-25T14:05:27.762Z,18.40
2023-04-25T14:07:56.443Z,18.40
2023-04-25T14:10:24.892Z,18.40
2023-04-25T14:12:53.374Z,18.40
2023-04-25T14:15:21.920Z,18.50
2023-04-25T14:17:52.065Z,18.50
2023-04-25T14:20:22.438Z,18.50
2023-04-25T14:22:50.755Z,18.50
2023-04-25T14:25:19.250Z,18.40
2023-04-25T14:27:50.808Z,18.50
2023-04-25T14:30:20.091Z,18.40
2023-04-25T14:32:48.766Z,18.40
2023-04-25T14:35:18.789Z,18.50
2023-04-25T14:37:47.185Z,18.50
2023-04-25T14:40:18.209Z,18.50
2023-04-25T14:42:46.583Z,18.50
2023-04-25T14:45:14.988Z,18.50
2023-04-25T14:47:43.469Z,18.40
2023-04-25T14:50:12.832Z,18.40
2023-04-25T14:52:42.614Z,18.40
2023-04-25T14:55:11.637Z,18.30
2023-04-25T14:57:40.366Z,18.40
2023-04-25T15:00:10.636Z,18.30
2023-04-25T15:02:39.596Z,18.30
2023-04-25T15:05:09.593Z,18.30
2023-04-25T15:07:38.070Z,18.30
2023-04-25T15:10:14.506Z,18.30
2023-04-25T15:12:42.891Z,18.40
2023-04-25T15:15:14.234Z,18.40
2023-04-25T15:17:46.480Z,18.40
2023-04-25T15:20:16.510Z,18.40
2023-04-25T15:22:46.764Z,18.50
2023-04-25T15:25:17.169Z,18.50
2023-04-25T15:27:47.736Z,18.40
2023-04-25T15:30:18.766Z,18.40
2023-04-25T15:32:48.117Z,18.40
2023-04-25T15:35:17.054Z,18.50
2023-04-25T15:37:46.412Z,18.50
2023-04-25T15:40:18.297Z,18.60
2023-04-25T15:42:48.794Z,18.60
2023-04-25T15:45:18.190Z,18.60
2023-04-25T15:47:47.281Z,18.60
2023-04-25T15:50:16.313Z,18.60
2023-04-25T15:52:44.918Z,18.50
2023-04-25T15:55:14.435Z,18.50
2023-04-25T15:57:44.562Z,18.50
2023-04-25T16:00:15.263Z,18.50
2023-04-25T16:02:45.943Z,18.50
2023-04-25T16:05:17.465Z,18.40
2023-04-25T16:07:48.658Z,18.40
2023-04-25T16:10:20.427Z,18.40
2023-04-25T16:12:53.640Z,18.40
2023-04-25T16:15:22.408Z,18.50
2023-04-25T16:17:51.189Z,18.50
2023-04-25T16:20:20.989Z,18.50
2023-04-25T16:22:49.345Z,18.50
2023-04-25T16:25:17.868Z,18.50
2023-04-25T16:27:46.491Z,18.50
2023-04-25T16:30:17.091Z,18.50
2023-04-25T16:32:45.959Z,18.50
2023-04-25T16:35:14.924Z,18.50
2023-04-25T16:37:43.282Z,18.50
2023-04-25T16:40:12.843Z,18.50
2023-04-25T16:42:41.218Z,18.50
2023-04-25T16:45:11.277Z,18.50
2023-04-25T16:47:41.214Z,18.50
2023-04-25T16:50:10.524Z,18.50
2023-04-25T16:52:38.891Z,18.40
2023-04-25T16:55:09.114Z,18.40
2023-04-25T16:57:37.868Z,18.40
2023-04-25T17:00:09.859Z,18.40
2023-04-25T17:02:38.375Z,18.40
2023-04-25T17:05:09.188Z,18.40
2023-04-25T17:07:40.621Z,18.40
2023-04-25T17:10:12.438Z,18.40
2023-04-25T17:12:41.933Z,18.30
2023-04-25T17:15:11.747Z,18.30
2023-04-25T17:17:40.227Z,18.30
2023-04-25T17:20:11.724Z,18.30
2023-04-25T17:22:40.039Z,18.30
2023-04-25T17:25:10.323Z,18.30
2023-04-25T17:27:38.788Z,18.30
2023-04-25T17:30:08.765Z,18.30
2023-04-25T17:32:37.710Z,18.30
2023-04-25T17:35:07.289Z,18.30
2023-04-25T17:37:37.395Z,18.20
2023-04-25T17:40:10.994Z,18.30
2023-04-25T17:42:39.872Z,18.20
2023-04-25T17:45:09.577Z,18.20
2023-04-25T17:47:40.278Z,18.20
2023-04-25T17:50:16.781Z,18.20
2023-04-25T17:52:48.756Z,18.10
2023-04-25T17:55:18.265Z,18.10
2023-04-25T17:57:46.924Z,18.10
2023-04-25T18:00:16.656Z,18.10
2023-04-25T18:02:45.716Z,18.10
2023-04-25T18:05:15.825Z,18.10
2023-04-25T18:07:44.209Z,18.00
2023-04-25T18:10:14.365Z,18.00
2023-04-25T18:12:43.372Z,18.00
2023-04-25T18:15:12.896Z,18.00
2023-04-25T18:17:42.121Z,18.00
2023-04-25T18:20:15.632Z,18.00
2023-04-25T18:22:45.204Z,18.00
2023-04-25T18:25:15.785Z,18.00
2023-04-25T18:27:45.258Z,18.00
2023-04-25T18:30:15.966Z,18.00
2023-04-25T18:32:44.870Z,17.90
2023-04-25T18:35:13.456Z,17.90
2023-04-25T18:37:42.677Z,17.90
2023-04-25T18:40:14.239Z,17.80
2023-04-25T18:42:44.429Z,17.80
2023-04-25T18:45:13.228Z,17.80
2023-04-25T18:47:42.839Z,17.80
2023-04-25T18:50:13.112Z,17.80
2023-04-25T18:52:42.087Z,17.80
2023-04-25T18:55:11.612Z,17.70
2023-04-25T18:57:39.999Z,17.70
2023-04-25T19:00:11.356Z,17.70
2023-04-25T19:02:40.039Z,17.70
2023-04-25T19:05:10.219Z,17.70
2023-04-25T19:07:38.834Z,17.60
2023-04-25T19:10:09.431Z,17.70
2023-04-25T19:12:38.504Z,17.60
2023-04-25T19:15:12.520Z,17.60
2023-04-25T19:17:42.254Z,17.60
2023-04-25T19:20:12.964Z,17.50
2023-04-25T19:22:41.430Z,17.50
2023-04-25T19:25:11.518Z,17.50
2023-04-25T19:27:41.148Z,17.40
2023-04-25T19:30:13.143Z,17.40
2023-04-25T19:32:41.551Z,17.50
2023-04-25T19:35:11.997Z,17.40
2023-04-25T19:37:46.480Z,17.30
2023-04-25T19:40:16.542Z,17.30
2023-04-25T19:42:45.061Z,17.30
2023-04-25T19:45:15.515Z,17.30
2023-04-25T19:47:44.997Z,17.30
2023-04-25T19:50:14.589Z,17.20
2023-04-25T19:52:49.385Z,17.20
2023-04-25T19:55:18.796Z,17.20
2023-04-25T19:57:47.457Z,17.20
2023-04-25T20:00:20.515Z,17.10
2023-04-25T20:02:48.984Z,17.10
2023-04-25T20:05:19.139Z,17.10
2023-04-25T20:07:47.723Z,17.10
2023-04-25T20:10:16.617Z,17.10
2023-04-25T20:12:46.040Z,17.00
2023-04-25T20:15:14.928Z,17.00
2023-04-25T20:17:47.154Z,17.00
2023-04-25T20:20:17.544Z,16.90
2023-04-25T20:22:46.484Z,16.90
2023-04-25T20:25:15.350Z,16.90
2023-04-25T20:27:44.082Z,16.90
2023-04-25T20:30:13.879Z,16.90
2023-04-25T20:32:42.535Z,16.90
2023-04-25T20:35:13.709Z,16.80
2023-04-25T20:37:42.385Z,16.80
2023-04-25T20:40:11.163Z,16.80
2023-04-25T20:42:39.496Z,16.80
2023-04-25T20:45:13.290Z,16.70
2023-04-25T20:47:43.041Z,16.70
2023-04-25T20:50:13.541Z,16.70
2023-04-25T20:52:42.066Z,16.70
2023-04-25T20:55:12.009Z,16.70
2023-04-25T20:57:40.462Z,16.70
2023-04-25T21:00:17.549Z,16.60
2023-04-25T21:02:46.622Z,16.60
2023-04-25T21:05:16.890Z,16.60
2023-04-25T21:07:45.774Z,16.50
2023-04-25T21:10:15.692Z,16.50
2023-04-25T21:12:48.137Z,16.50
2023-04-25T21:15:18.620Z,16.50
2023-04-25T21:17:47.872Z,16.50
2023-04-25T21:20:19.820Z,16.50
2023-04-25T21:22:53.444Z,16.50
2023-04-25T21:25:29.430Z,16.50
2023-04-25T21:27:58.265Z,16.40
2023-04-25T21:30:27.261Z,16.40
2023-04-25T21:32:56.421Z,16.30
2023-04-25T21:35:26.273Z,16.40
2023-04-25T21:37:54.560Z,16.40
2023-04-25T21:40:23.562Z,16.30
2023-04-25T21:42:53.769Z,16.30
2023-04-25T21:45:23.021Z,16.30
2023-04-25T21:47:51.871Z,16.30
2023-04-25T21:50:21.221Z,16.30
2023-04-25T21:52:51.382Z,16.20
2023-04-25T21:55:22.171Z,16.20
2023-04-25T21:57:51.552Z,16.20
2023-04-25T22:00:24.795Z,16.20
2023-04-25T22:02:54.006Z,16.20
2023-04-25T22:05:22.939Z,16.20
2023-04-25T22:07:54.210Z,16.20
2023-04-25T22:10:22.891Z,16.10
2023-04-25T22:12:51.763Z,16.10
2023-04-25T22:15:23.630Z,16.10
2023-04-25T22:17:52.629Z,16.10
2023-04-25T22:20:24.327Z,16.10
2023-04-25T22:22:54.731Z,16.10
2023-04-25T22:25:23.974Z,16.00
2023-04-25T22:27:52.555Z,16.00
2023-04-25T22:30:21.975Z,16.00
2023-04-25T22:32:50.341Z,16.00
2023-04-25T22:35:19.398Z,16.00
2023-04-25T22:37:47.773Z,16.00
2023-04-25T22:40:18.204Z,15.90
2023-04-25T22:42:46.899Z,15.90
2023-04-25T22:45:16.188Z,16.00
2023-04-25T22:47:44.664Z,15.90
2023-04-25T22:50:16.960Z,15.90
2023-04-25T22:52:45.563Z,15.90
2023-04-25T22:55:14.058Z,15.90
2023-04-25T22:57:44.109Z,15.80
2023-04-25T23:00:19.261Z,15.80
2023-04-25T23:02:49.142Z,15.90
2023-04-25T23:05:18.171Z,15.90
2023-04-25T23:07:46.675Z,15.80
2023-04-25T23:10:15.416Z,15.80
2023-04-25T23:12:45.515Z,15.80
2023-04-25T23:15:14.428Z,15.80
2023-04-25T23:17:45.295Z,15.80
2023-04-25T23:20:14.638Z,15.80
2023-04-25T23:22:43.046Z,15.80
2023-04-25T23:25:11.980Z,15.70
2023-04-25T23:27:40.332Z,15.70
2023-04-25T23:30:12.337Z,15.80
2023-04-25T23:32:40.835Z,15.70
2023-04-25T23:35:10.107Z,15.70
2023-04-25T23:37:38.987Z,15.70
2023-04-25T23:40:10.340Z,15.70
2023-04-25T23:42:38.987Z,15.70
2023-04-25T23:45:08.863Z,15.60
2023-04-25T23:47:38.781Z,15.70
2023-04-25T23:50:09.238Z,15.60
2023-04-25T23:52:37.975Z,15.60
2023-04-25T23:55:07.418Z,15.60
2023-04-25T23:57:35.770Z,15.60
